Time;durP1;ratioP1;P1;durP2;ratioP2;P2;SDS_P1;SDS_P2;PMS_P1;PMS_P2;Temp;Humidity;BMP_temperature;BMP_pressure;BME280_temperature;BME280_humidity;BME280_pressure;Samples;Min_cycle;Max_cycle;Signal;HPM_P1;HPM_P2
2021/03/19 00:02:12;;;;;;;0.20;0.20;;;3.40;99.90;;;;;;5026942;28;20029;-77
2021/03/19 00:04:38;;;;;;;0.23;0.23;;;3.30;99.90;;;;;;5034017;28;20037;-77
2021/03/19 00:07:04;;;;;;;1.97;0.50;;;3.20;99.90;;;;;;5034117;28;20026;-79
2021/03/19 00:09:29;;;;;;;0.10;0.10;;;3.20;99.90;;;;;;5033444;28;20334;-78
2021/03/19 00:11:55;;;;;;;0.20;0.20;;;3.20;99.90;;;;;;5004118;28;20025;-78
2021/03/19 00:14:21;;;;;;;0.20;0.20;;;3.10;99.90;;;;;;5033894;28;20087;-78
2021/03/19 00:16:46;;;;;;;0.10;0.10;;;3.10;99.90;;;;;;5031782;28;20592;-78
2021/03/19 00:19:12;;;;;;;0.20;0.13;;;3.10;99.90;;;;;;5032962;28;20041;-78
2021/03/19 00:21:38;;;;;;;0.20;0.20;;;3.00;99.90;;;;;;5023374;28;20079;-78
2021/03/19 00:24:06;;;;;;;1.27;0.17;;;3.10;99.90;;;;;;5031909;28;20034;-77
2021/03/19 00:26:31;;;;;;;1.35;0.57;;;3.10;99.90;;;;;;5014287;28;20033;-77
2021/03/19 00:28:57;;;;;;;1.30;0.83;;;3.00;99.90;;;;;;5014752;28;20046;-77
2021/03/19 00:31:23;;;;;;;0.20;0.20;;;3.00;99.90;;;;;;5010377;28;20408;-78
2021/03/19 00:33:49;;;;;;;0.35;0.35;;;3.00;99.90;;;;;;5012441;28;20048;-77
2021/03/19 00:36:15;;;;;;;1.60;1.27;;;3.00;99.90;;;;;;5009201;28;20325;-77
2021/03/19 00:38:41;;;;;;;0.10;0.10;;;2.90;99.90;;;;;;5015012;28;20056;-78
2021/03/19 00:41:06;;;;;;;0.13;0.13;;;2.90;99.90;;;;;;5033404;28;20416;-79
2021/03/19 00:43:32;;;;;;;0.10;0.10;;;2.90;99.90;;;;;;5009340;28;20432;-78
2021/03/19 00:45:58;;;;;;;0.50;0.50;;;2.90;99.90;;;;;;5011030;28;20025;-77
2021/03/19 00:48:24;;;;;;;3.23;0.73;;;3.00;99.90;;;;;;5033543;28;20408;-78
2021/03/19 00:50:51;;;;;;;0.20;0.20;;;2.90;99.90;;;;;;5013516;28;20440;-77
2021/03/19 00:53:16;;;;;;;;;;;2.90;99.90;;;;;;5013921;28;20029;-76
2021/03/19 00:55:42;;;;;;;0.13;0.13;;;2.80;99.90;;;;;;5030139;28;20324;-77
2021/03/19 00:58:08;;;;;;;0.20;0.20;;;2.80;99.90;;;;;;5030772;28;20068;-77
2021/03/19 01:00:35;;;;;;;0.60;0.60;;;2.70;99.90;;;;;;5015166;28;20432;-77
2021/03/19 01:03:03;;;;;;;0.17;0.17;;;2.70;99.90;;;;;;5022997;28;20022;-77
2021/03/19 01:05:34;;;;;;;0.22;0.22;;;2.70;99.90;;;;;;5029497;28;20033;-79
2021/03/19 01:08:02;;;;;;;9.63;2.03;;;2.70;99.90;;;;;;5008632;28;20062;-77
2021/03/19 01:10:32;;;;;;;0.25;0.25;;;2.80;99.90;;;;;;5015415;28;20025;-76
2021/03/19 01:12:58;;;;;;;0.20;0.20;;;2.70;99.90;;;;;;5032499;28;20021;-77
2021/03/19 01:15:24;;;;;;;0.20;0.20;;;2.70;99.90;;;;;;5023168;28;20028;-77
2021/03/19 01:17:51;;;;;;;0.85;0.85;;;2.60;99.90;;;;;;5025891;28;20328;-78
2021/03/19 01:20:17;;;;;;;0.30;0.30;;;2.60;99.90;;;;;;5010471;28;20033;-77
2021/03/19 01:22:43;;;;;;;2.53;0.52;;;2.60;99.90;;;;;;5030861;28;20022;-77
2021/03/19 01:25:13;;;;;;;0.47;0.47;;;2.70;99.90;;;;;;5027886;28;20037;-76
2021/03/19 01:27:39;;;;;;;1.48;0.32;;;2.60;99.90;;;;;;5033256;28;20025;-79
2021/03/19 01:30:10;;;;;;;0.20;0.20;;;2.50;99.90;;;;;;5010320;28;20091;-76
2021/03/19 01:32:37;;;;;;;0.77;0.77;;;2.50;99.90;;;;;;5029034;28;20033;-76
2021/03/19 01:35:04;;;;;;;0.20;0.20;;;2.50;99.90;;;;;;5008402;28;20033;-76
2021/03/19 01:37:30;;;;;;;0.63;0.60;;;2.50;99.90;;;;;;5017502;28;20060;-76
2021/03/19 01:39:56;;;;;;;2.55;0.43;;;2.50;99.90;;;;;;5034161;28;20029;-76
2021/03/19 01:42:22;;;;;;;0.20;0.20;;;2.50;99.90;;;;;;5018417;28;20052;-76
2021/03/19 01:45:06;;;;;;;1.30;0.57;;;2.50;99.90;;;;;;5017505;28;20061;-78
2021/03/19 01:48:09;;;;;;;1.08;0.98;;;2.50;99.90;;;;;;5036561;28;20033;-77
2021/03/19 01:51:12;;;;;;;0.60;0.60;;;2.50;99.90;;;;;;5012037;28;20021;-78
2021/03/19 01:54:17;;;;;;;0.35;0.35;;;2.60;99.90;;;;;;5005900;28;20025;-77
2021/03/19 01:57:20;;;;;;;0.35;0.35;;;2.50;99.90;;;;;;5018169;28;20319;-76
2021/03/19 02:00:23;;;;;;;0.32;0.32;;;2.50;99.90;;;;;;5034909;28;20122;-76
2021/03/19 02:03:26;;;;;;;0.73;0.73;;;2.50;99.90;;;;;;5036350;28;20029;-76
2021/03/19 02:06:29;;;;;;;0.75;0.63;;;2.40;99.90;;;;;;5018454;28;20029;-77
2021/03/19 02:09:32;;;;;;;0.20;0.20;;;2.40;99.90;;;;;;5016573;28;20033;-77
2021/03/19 02:12:46;;;;;;;0.25;0.25;;;2.40;99.90;;;;;;5016943;28;20028;-78
2021/03/19 02:15:49;;;;;;;0.17;0.17;;;2.30;99.90;;;;;;4931673;28;20024;-77
2021/03/19 02:18:53;;;;;;;2.28;1.55;;;2.30;99.90;;;;;;5035698;28;20022;-76
2021/03/19 02:21:56;;;;;;;0.35;0.35;;;2.40;99.90;;;;;;5010688;28;20041;-76
2021/03/19 02:24:59;;;;;;;0.70;0.60;;;2.40;99.90;;;;;;5021344;28;20053;-76
2021/03/19 02:28:01;;;;;;;0.20;0.20;;;2.30;99.90;;;;;;5034317;28;20045;-79
2021/03/19 02:31:04;;;;;;;2.53;0.65;;;2.30;99.90;;;;;;5025718;28;20129;-77
2021/03/19 02:33:33;;;;;;;0.30;0.30;;;2.30;99.90;;;;;;5032636;28;20332;-78
2021/03/19 02:36:01;;;;;;;0.60;0.60;;;2.30;99.90;;;;;;5016987;28;20025;-76
2021/03/19 02:38:27;;;;;;;0.52;0.52;;;2.30;99.90;;;;;;5018330;28;20115;-76
2021/03/19 02:40:54;;;;;;;0.22;0.22;;;2.30;99.90;;;;;;5018240;28;20029;-76
2021/03/19 02:43:22;;;;;;;1.25;0.95;;;2.20;99.90;;;;;;5034520;28;20095;-76
2021/03/19 02:45:48;;;;;;;0.10;0.10;;;2.20;99.90;;;;;;5027199;28;20025;-76
2021/03/19 02:48:15;;;;;;;0.10;0.10;;;2.10;99.90;;;;;;5011092;28;20137;-76
2021/03/19 02:50:41;;;;;;;;;;;2.10;99.90;;;;;;5031396;28;20040;-77
2021/03/19 02:53:23;;;;;;;0.40;0.40;;;2.00;99.90;;;;;;5030047;28;19913;-76
2021/03/19 02:55:49;;;;;;;0.38;0.38;;;2.00;99.90;;;;;;5017940;28;20445;-76
2021/03/19 02:58:15;;;;;;;1.27;0.73;;;2.00;99.90;;;;;;5017810;28;20417;-76
2021/03/19 03:00:42;;;;;;;0.10;0.10;;;2.00;99.90;;;;;;5029029;28;20087;-76
2021/03/19 03:03:08;;;;;;;0.40;0.40;;;1.90;99.90;;;;;;5014289;28;20379;-76
2021/03/19 03:05:33;;;;;;;0.20;0.20;;;2.00;99.90;;;;;;5032065;28;20057;-75
2021/03/19 03:08:00;;;;;;;3.77;1.17;;;1.90;99.90;;;;;;5032000;28;20017;-76
2021/03/19 03:10:27;;;;;;;0.52;0.52;;;1.90;99.90;;;;;;5029711;28;20124;-76
2021/03/19 03:12:53;;;;;;;0.60;0.60;;;1.80;99.90;;;;;;5004717;28;20037;-76
2021/03/19 03:15:20;;;;;;;0.30;0.30;;;1.80;99.90;;;;;;5032116;28;20021;-76
2021/03/19 03:17:46;;;;;;;0.65;0.65;;;1.70;99.90;;;;;;5034981;28;20026;-76
2021/03/19 03:20:38;;;;;;;0.25;0.25;;;1.60;99.90;;;;;;5032634;28;20328;-76
2021/03/19 03:23:06;;;;;;;0.10;0.10;;;1.60;99.90;;;;;;5019491;28;20038;-77
2021/03/19 03:25:33;;;;;;;0.65;0.65;;;1.50;99.90;;;;;;5029493;28;20409;-76
2021/03/19 03:27:58;;;;;;;;;;;1.60;99.90;;;;;;5034575;28;20416;-75
2021/03/19 03:30:35;;;;;;;0.57;0.57;;;1.50;99.90;;;;;;5030555;28;19917;-76
2021/03/19 03:33:01;;;;;;;0.15;0.15;;;1.60;99.90;;;;;;5013174;28;20030;-77
2021/03/19 03:35:28;;;;;;;1.17;1.08;;;1.60;99.90;;;;;;5026894;28;20029;-76
2021/03/19 03:37:54;;;;;;;1.08;0.57;;;1.60;99.90;;;;;;5034105;28;20017;-77
2021/03/19 03:40:49;;;;;;;0.43;0.43;;;1.60;99.90;;;;;;5031163;28;20033;-76
2021/03/19 03:43:16;;;;;;;0.30;0.30;;;1.70;99.90;;;;;;5013806;28;20132;-76
2021/03/19 03:45:43;;;;;;;0.50;0.50;;;1.70;99.90;;;;;;5014918;28;20111;-76
2021/03/19 03:48:10;;;;;;;0.45;0.38;;;1.80;99.90;;;;;;5027979;28;20025;-76
2021/03/19 03:50:37;;;;;;;0.40;0.40;;;1.80;99.90;;;;;;5031321;28;20095;-76
2021/03/19 03:53:04;;;;;;;0.60;0.28;;;1.80;99.90;;;;;;5027548;28;20083;-76
2021/03/19 03:55:30;;;;;;;2.33;0.60;;;1.80;99.90;;;;;;5009741;28;20034;-76
2021/03/19 03:57:56;;;;;;;0.85;0.85;;;1.70;99.90;;;;;;5013253;28;20113;-76
2021/03/19 04:00:24;;;;;;;0.20;0.20;;;1.70;99.90;;;;;;5016042;28;20029;-76
2021/03/19 04:02:51;;;;;;;0.50;0.50;;;1.60;99.90;;;;;;5033514;28;20404;-77
2021/03/19 04:05:26;;;;;;;0.20;0.20;;;1.60;99.90;;;;;;5026193;28;20044;-76
2021/03/19 04:07:52;;;;;;;0.45;0.45;;;1.60;99.90;;;;;;5031197;28;20112;-76
2021/03/19 04:10:18;;;;;;;0.20;0.20;;;1.50;99.90;;;;;;5009359;28;20112;-76
2021/03/19 04:12:45;;;;;;;2.20;0.80;;;1.50;99.90;;;;;;5016196;28;20047;-77
2021/03/19 04:15:12;;;;;;;1.20;1.10;;;1.50;99.90;;;;;;5029210;28;20079;-77
2021/03/19 04:17:38;;;;;;;1.17;0.98;;;1.40;99.90;;;;;;5015219;28;20025;-76
2021/03/19 04:20:06;;;;;;;5.50;1.60;;;1.40;99.90;;;;;;5031531;28;20105;-76
2021/03/19 04:22:32;;;;;;;0.30;0.30;;;1.50;99.90;;;;;;5032403;28;20087;-77
2021/03/19 04:24:57;;;;;;;0.10;0.10;;;1.60;99.90;;;;;;5032717;28;20408;-76
2021/03/19 04:27:28;;;;;;;0.73;0.73;;;1.70;99.90;;;;;;5028678;28;20021;-76
2021/03/19 04:29:55;;;;;;;0.82;0.82;;;1.70;99.90;;;;;;5026735;28;20136;-76
2021/03/19 04:32:21;;;;;;;0.10;0.10;;;1.70;99.90;;;;;;5013692;28;20052;-76
2021/03/19 04:34:47;;;;;;;0.43;0.43;;;1.70;99.90;;;;;;5026546;28;20480;-77
2021/03/19 04:37:13;;;;;;;0.17;0.17;;;1.70;99.90;;;;;;5013525;28;20120;-76
2021/03/19 04:39:42;;;;;;;1.17;1.17;;;1.70;99.90;;;;;;5033640;28;20026;-76
2021/03/19 04:42:10;;;;;;;0.55;0.50;;;1.70;99.90;;;;;;5010629;28;20096;-77
2021/03/19 04:44:41;;;;;;;0.52;0.52;;;1.70;99.90;;;;;;5019304;28;20079;-76
2021/03/19 04:47:06;;;;;;;0.20;0.20;;;1.70;99.90;;;;;;5012995;28;20033;-76
2021/03/19 04:49:33;;;;;;;3.20;0.93;;;1.70;99.90;;;;;;5016517;28;20037;-77
2021/03/19 04:51:59;;;;;;;;;;;1.70;99.90;;;;;;5022262;28;20025;-76
2021/03/19 04:54:25;;;;;;;0.32;0.22;;;1.60;99.90;;;;;;5014131;28;19951;-77
2021/03/19 04:56:51;;;;;;;0.30;0.30;;;1.70;99.90;;;;;;5012613;28;20523;-77
2021/03/19 04:59:17;;;;;;;0.30;0.30;;;1.70;99.90;;;;;;5015155;28;20021;-76
2021/03/19 05:01:52;;;;;;;1.65;0.85;;;1.70;99.90;;;;;;5036826;28;20344;-77
2021/03/19 05:04:21;;;;;;;0.65;0.65;;;1.60;99.90;;;;;;5030478;28;20064;-76
2021/03/19 05:06:51;;;;;;;0.73;0.65;;;1.60;99.90;;;;;;5035988;28;20121;-78
2021/03/19 05:09:17;;;;;;;0.40;0.40;;;1.60;99.90;;;;;;5011585;28;20021;-76
2021/03/19 05:11:44;;;;;;;0.28;0.28;;;1.60;99.90;;;;;;5032176;28;20030;-77
2021/03/19 05:14:10;;;;;;;;;;;1.50;99.90;;;;;;5016026;28;20052;-77
2021/03/19 05:16:36;;;;;;;0.10;0.10;;;1.50;99.90;;;;;;5009204;28;19913;-76
2021/03/19 05:19:02;;;;;;;2.47;1.43;;;1.50;99.90;;;;;;5032341;28;20302;-76
2021/03/19 05:21:28;;;;;;;2.35;0.98;;;1.60;99.90;;;;;;5014330;28;20421;-76
2021/03/19 05:23:54;;;;;;;0.10;0.10;;;1.60;99.90;;;;;;5029845;28;20049;-76
2021/03/19 05:26:20;;;;;;;0.70;0.20;;;1.60;99.90;;;;;;5034742;28;20055;-76
2021/03/19 05:28:45;;;;;;;2.40;0.50;;;1.60;99.90;;;;;;5012307;28;20034;-77
2021/03/19 05:31:11;;;;;;;0.20;0.20;;;1.60;99.90;;;;;;5035634;28;20087;-75
2021/03/19 05:33:55;;;;;;;1.60;1.10;;;1.70;99.90;;;;;;5012463;28;21739;-76
2021/03/19 05:36:25;;;;;;;0.52;0.40;;;1.70;99.90;;;;;;5034865;28;20036;-76
2021/03/19 05:38:51;;;;;;;0.47;0.35;;;1.70;99.90;;;;;;5030113;28;20030;-77
2021/03/19 05:41:18;;;;;;;1.45;1.33;;;1.80;99.90;;;;;;5009439;28;20057;-77
2021/03/19 05:43:53;;;;;;;0.30;0.30;;;1.80;99.90;;;;;;5014125;28;20037;-78
2021/03/19 05:46:29;;;;;;;0.32;0.32;;;1.80;99.90;;;;;;5018933;28;20033;-76
2021/03/19 05:49:20;;;;;;;0.30;0.30;;;1.90;99.90;;;;;;5016176;28;20056;-77
2021/03/19 05:51:49;;;;;;;0.15;0.15;;;1.90;99.90;;;;;;5028120;28;20093;-77
2021/03/19 05:54:25;;;;;;;5.40;1.42;;;1.90;99.90;;;;;;5034148;28;20042;-78
2021/03/19 05:57:00;;;;;;;0.10;0.10;;;2.00;99.90;;;;;;5018510;28;20388;-77
2021/03/19 05:59:26;;;;;;;0.20;0.20;;;1.90;99.90;;;;;;5033433;28;20104;-77
2021/03/19 06:01:52;;;;;;;0.38;0.38;;;2.00;99.90;;;;;;5016443;28;20030;-77
2021/03/19 06:04:21;;;;;;;0.43;0.43;;;2.00;99.90;;;;;;5017321;28;20026;-76
2021/03/19 06:06:52;;;;;;;1.08;0.40;;;2.00;99.90;;;;;;5018699;28;20041;-76
2021/03/19 06:09:42;;;;;;;0.30;0.30;;;2.10;99.90;;;;;;5008528;28;20029;-76
2021/03/19 06:12:16;;;;;;;5.15;1.85;;;2.10;99.90;;;;;;5006765;28;20425;-77
2021/03/19 06:14:52;;;;;;;0.10;0.10;;;2.10;99.90;;;;;;5017381;28;20034;-77
2021/03/19 06:17:33;;;;;;;1.45;0.65;;;2.20;99.90;;;;;;5027757;28;20017;-76
2021/03/19 06:20:02;;;;;;;0.50;0.50;;;2.30;99.90;;;;;;5032651;28;20035;-77
2021/03/19 06:22:49;;;;;;;0.20;0.20;;;2.40;99.90;;;;;;5013225;28;20110;-76
2021/03/19 06:25:20;;;;;;;0.80;0.73;;;2.40;99.90;;;;;;5026788;28;20022;-77
2021/03/19 06:27:58;;;;;;;0.73;0.73;;;2.40;99.90;;;;;;5028964;28;20018;-77
2021/03/19 06:30:40;;;;;;;0.20;0.20;;;2.40;99.90;;;;;;5011315;28;20045;-77
2021/03/19 06:33:12;;;;;;;0.05;0.05;;;2.50;99.90;;;;;;5012960;28;20030;-77
2021/03/19 06:35:59;;;;;;;1.17;0.73;;;2.60;99.90;;;;;;5031943;28;20080;-77
2021/03/19 06:38:38;;;;;;;0.20;0.20;;;2.70;99.90;;;;;;5025466;28;20480;-78
2021/03/19 06:41:16;;;;;;;1.27;0.47;;;2.80;99.90;;;;;;5032100;28;20059;-79
2021/03/19 06:43:42;;;;;;;1.25;0.77;;;3.00;99.90;;;;;;5035370;28;20033;-79
2021/03/19 06:46:14;;;;;;;0.05;0.05;;;3.20;99.90;;;;;;5031970;28;20025;-76
2021/03/19 06:48:47;;;;;;;0.30;0.30;;;3.20;99.90;;;;;;5033262;28;20103;-77
2021/03/19 06:51:36;;;;;;;0.52;0.52;;;3.30;99.90;;;;;;5029209;28;20025;-78
2021/03/19 06:54:02;;;;;;;7.75;1.42;;;3.40;99.90;;;;;;5015956;28;20034;-79
2021/03/19 06:56:28;;;;;;;1.07;0.73;;;3.60;99.90;;;;;;5033090;28;20028;-79
2021/03/19 06:58:54;;;;;;;1.77;1.02;;;3.80;99.90;;;;;;5024897;28;20025;-78
2021/03/19 07:01:23;;;;;;;1.98;1.55;;;4.00;99.90;;;;;;5011442;28;20038;-77
2021/03/19 07:04:15;;;;;;;7.22;0.55;;;4.30;99.90;;;;;;5005955;28;20018;-78
2021/03/19 07:07:04;;;;;;;4.63;0.47;;;4.80;99.90;;;;;;5013547;28;20036;-78
2021/03/19 07:09:52;;;;;;;0.13;0.13;;;5.20;99.90;;;;;;5008383;28;20057;-77
2021/03/19 07:12:40;;;;;;;0.30;0.30;;;5.70;99.90;;;;;;5016927;28;20029;-78
2021/03/19 07:15:31;;;;;;;0.25;0.25;;;6.10;99.90;;;;;;5032052;28;20419;-79
2021/03/19 07:17:58;;;;;;;0.68;0.68;;;6.20;99.90;;;;;;5030362;28;20029;-77
2021/03/19 07:20:27;;;;;;;;;;;6.40;99.90;;;;;;5011715;28;20025;-78
2021/03/19 07:23:15;;;;;;;0.52;0.47;;;6.80;99.90;;;;;;5030612;28;19909;-78
2021/03/19 07:26:13;;;;;;;0.10;0.10;;;6.90;99.90;;;;;;5034235;28;20025;-76
2021/03/19 07:29:10;;;;;;;0.20;0.20;;;6.80;99.90;;;;;;5022499;28;20068;-77
2021/03/19 07:31:41;;;;;;;5.28;1.20;;;7.10;99.90;;;;;;5010174;28;20297;-78
2021/03/19 07:34:32;;;;;;;0.57;0.57;;;7.40;99.90;;;;;;5011054;28;20464;-77
2021/03/19 07:37:13;;;;;;;3.45;0.90;;;7.40;99.90;;;;;;5012028;28;20420;-77
2021/03/19 07:40:02;;;;;;;0.10;0.10;;;7.50;99.90;;;;;;5015737;28;20347;-78
2021/03/19 07:42:52;;;;;;;0.10;0.10;;;7.30;99.90;;;;;;5002137;28;20026;-78
2021/03/19 07:45:38;;;;;;;27.02;1.17;;;7.10;99.90;;;;;;5028471;28;20033;-77
2021/03/19 07:48:19;;;;;;;1.05;0.40;;;7.40;99.90;;;;;;5032581;28;20037;-77
2021/03/19 07:51:17;;;;;;;0.50;0.50;;;7.80;99.90;;;;;;5014020;28;20116;-79
2021/03/19 07:54:04;;;;;;;0.35;0.35;;;7.60;99.90;;;;;;4950700;29;20107;-78
2021/03/19 07:57:02;;;;;;;0.30;0.30;;;7.20;99.90;;;;;;4927955;28;20050;-78
2021/03/19 07:59:55;;;;;;;0.10;0.10;;;7.10;99.90;;;;;;4937392;29;20054;-82
2021/03/19 08:02:48;;;;;;;9.80;0.60;;;6.80;99.90;;;;;;4936598;29;20077;-80
2021/03/19 08:05:22;;;;;;;27.48;2.55;;;6.40;99.90;;;;;;4953344;28;20111;-77
2021/03/19 08:08:06;;;;;;;18.95;1.40;;;6.00;99.90;;;;;;4952926;28;20126;-78
2021/03/19 08:10:41;;;;;;;3.53;1.58;;;5.80;99.90;;;;;;4937646;29;20046;-78
2021/03/19 08:13:34;;;;;;;0.85;0.55;;;5.60;99.90;;;;;;4937489;29;20027;-79
2021/03/19 08:16:25;;;;;;;0.65;0.57;;;5.90;99.90;;;;;;4937166;29;20134;-80
2021/03/19 08:18:56;;;;;;;0.32;0.32;;;6.10;99.90;;;;;;4954817;28;20063;-81
2021/03/19 08:21:30;;;;;;;5.63;1.60;;;5.60;99.90;;;;;;4948211;28;20047;-77
2021/03/19 08:24:11;;;;;;;0.75;0.75;;;5.70;99.90;;;;;;4937426;29;20491;-77
2021/03/19 08:27:00;;;;;;;17.40;1.42;;;5.80;99.90;;;;;;4949227;28;20431;-77
2021/03/19 08:29:45;;;;;;;0.75;0.75;;;5.60;99.90;;;;;;4986546;28;20332;-77
2021/03/19 08:32:46;;;;;;;0.40;0.40;;;5.50;99.90;;;;;;5030760;28;20025;-78
2021/03/19 08:35:30;;;;;;;0.35;0.35;;;5.50;99.90;;;;;;5032501;28;20105;-77
2021/03/19 08:38:29;;;;;;;0.17;0.17;;;5.30;99.90;;;;;;5013908;28;20032;-79
2021/03/19 08:41:00;;;;;;;0.25;0.25;;;5.50;99.90;;;;;;5026742;28;20030;-78
2021/03/19 08:43:31;;;;;;;0.85;0.60;;;5.40;99.90;;;;;;5009624;28;20456;-76
2021/03/19 08:46:08;;;;;;;0.80;0.30;;;5.30;99.90;;;;;;5018323;28;20091;-78
2021/03/19 08:48:57;;;;;;;0.13;0.13;;;5.60;99.90;;;;;;5029067;28;20442;-82
2021/03/19 08:51:29;;;;;;;0.10;0.10;;;5.70;99.90;;;;;;5018997;28;20033;-80
2021/03/19 08:54:13;;;;;;;0.45;0.38;;;5.80;99.90;;;;;;5030982;28;20024;-78
2021/03/19 08:56:44;;;;;;;12.63;0.57;;;5.70;99.90;;;;;;5026337;28;20029;-81
2021/03/19 08:59:29;;;;;;;0.47;0.47;;;5.70;99.90;;;;;;5009226;28;20029;-77
2021/03/19 09:01:57;;;;;;;0.60;0.60;;;5.80;99.90;;;;;;5014903;28;20034;-79
2021/03/19 09:04:57;;;;;;;0.90;0.73;;;6.00;99.90;;;;;;5035436;28;20383;-78
2021/03/19 09:07:31;;;;;;;1.45;0.70;;;5.80;99.90;;;;;;5016324;28;20056;-79
2021/03/19 09:10:04;;;;;;;0.30;0.30;;;5.90;99.90;;;;;;5015104;28;20048;-77
2021/03/19 09:12:32;;;;;;;1.00;0.85;;;5.80;99.90;;;;;;5016700;28;20108;-77
2021/03/19 09:15:16;;;;;;;0.45;0.45;;;5.70;99.90;;;;;;5017409;28;20121;-79
2021/03/19 09:17:48;;;;;;;0.50;0.50;;;5.70;99.90;;;;;;5029624;28;20026;-81
2021/03/19 09:20:26;;;;;;;1.77;0.98;;;5.70;99.90;;;;;;5035327;28;20018;-78
2021/03/19 09:23:04;;;;;;;0.20;0.20;;;5.80;99.90;;;;;;5036224;28;20049;-79
2021/03/19 09:26:08;;;;;;;1.60;1.00;;;6.30;99.90;;;;;;5034913;28;20025;-82
2021/03/19 09:28:56;;;;;;;0.70;0.70;;;6.40;99.90;;;;;;4978107;28;20041;-81
2021/03/19 09:31:25;;;;;;;0.17;0.17;;;6.20;99.90;;;;;;5018103;28;20555;-79
2021/03/19 09:33:51;;;;;;;0.50;0.50;;;6.30;99.90;;;;;;5019365;28;20107;-78
2021/03/19 09:36:56;;;;;;;0.05;0.05;;;6.50;99.90;;;;;;5010355;28;20480;-83
2021/03/19 09:39:55;;;;;;;0.30;0.30;;;6.70;99.90;;;;;;5030261;28;20068;-78
2021/03/19 09:42:21;;;;;;;7.53;0.45;;;6.90;99.90;;;;;;5032827;28;20033;-78
2021/03/19 09:44:53;;;;;;;0.47;0.45;;;7.20;99.90;;;;;;5013219;28;20106;-77
2021/03/19 09:47:31;;;;;;;1.85;0.90;;;7.30;99.90;;;;;;5017652;28;20017;-80
2021/03/19 09:50:24;;;;;;;0.32;0.32;;;6.90;99.90;;;;;;5017549;28;20025;-78
2021/03/19 09:53:07;;;;;;;0.90;0.80;;;7.00;99.90;;;;;;5036453;28;20432;-79
2021/03/19 09:55:49;;;;;;;1.00;0.52;;;7.10;99.90;;;;;;5018338;28;20357;-83
2021/03/19 09:58:26;;;;;;;0.10;0.10;;;7.10;99.90;;;;;;5035844;28;20032;-78
2021/03/19 10:01:22;;;;;;;0.10;0.10;;;7.10;99.90;;;;;;5033828;28;20084;-79
2021/03/19 10:03:55;;;;;;;0.60;0.60;;;7.10;99.90;;;;;;5014813;28;20478;-78
2021/03/19 10:06:34;;;;;;;0.15;0.15;;;7.40;99.90;;;;;;5035874;28;20032;-78
2021/03/19 10:09:12;;;;;;;1.95;1.42;;;7.20;99.90;;;;;;5023652;28;20492;-87
2021/03/19 10:12:09;;;;;;;0.88;0.88;;;7.10;99.90;;;;;;5015138;28;20028;-78
2021/03/19 10:14:44;;;;;;;0.43;0.43;;;7.00;99.90;;;;;;5009213;28;20317;-81
2021/03/19 10:17:30;;;;;;;0.40;0.40;;;7.20;99.90;;;;;;5035507;28;20033;-87
2021/03/19 10:20:14;;;;;;;0.08;0.08;;;7.20;99.90;;;;;;5017224;28;20412;-79
2021/03/19 10:22:44;;;;;;;0.20;0.20;;;7.10;99.90;;;;;;5035809;28;20074;-81
2021/03/19 10:25:21;;;;;;;0.15;0.15;;;6.90;99.90;;;;;;5016691;28;20420;-82
2021/03/19 10:27:48;;;;;;;;;;;7.00;99.90;;;;;;5011963;28;20119;-80
2021/03/19 10:30:31;;;;;;;0.28;0.28;;;6.90;99.90;;;;;;5017211;28;19959;-83
2021/03/19 10:33:03;;;;;;;9.20;1.60;;;7.00;99.90;;;;;;5015636;28;20460;-81
2021/03/19 10:35:38;;;;;;;0.20;0.20;;;7.00;99.90;;;;;;5017243;28;20035;-80
2021/03/19 10:38:04;;;;;;;0.22;0.20;;;7.10;99.90;;;;;;5035578;28;20358;-79
2021/03/19 10:40:38;;;;;;;0.33;0.33;;;7.20;99.90;;;;;;5024370;28;20037;-79
2021/03/19 10:43:28;;;;;;;0.45;0.45;;;7.10;99.90;;;;;;5007909;28;20034;-81
2021/03/19 10:46:09;;;;;;;0.30;0.30;;;7.00;99.90;;;;;;5006075;28;20375;-87
2021/03/19 10:48:42;;;;;;;0.30;0.30;;;7.10;99.90;;;;;;5015925;28;20053;-86
2021/03/19 10:51:33;;;;;;;0.32;0.32;;;7.10;99.90;;;;;;5017740;28;20033;-79
2021/03/19 10:54:18;;;;;;;2.92;0.63;;;7.20;99.90;;;;;;5032750;28;20053;-80
2021/03/19 10:56:53;;;;;;;0.75;0.75;;;7.20;99.90;;;;;;5014646;28;20034;-79
2021/03/19 10:59:30;;;;;;;0.40;0.40;;;7.10;99.90;;;;;;5016379;28;20025;-80
2021/03/19 11:02:11;;;;;;;0.20;0.20;;;7.10;99.90;;;;;;5026290;28;20168;-85
2021/03/19 11:04:43;;;;;;;0.65;0.65;;;7.10;99.90;;;;;;5033112;28;20044;-79
2021/03/19 11:07:27;;;;;;;0.28;0.28;;;7.10;99.90;;;;;;5016133;28;20022;-90
2021/03/19 11:10:08;;;;;;;0.70;0.68;;;7.20;99.90;;;;;;5013084;28;20025;-84
2021/03/19 11:12:38;;;;;;;0.45;0.45;;;7.10;99.90;;;;;;5035455;28;20021;-85
2021/03/19 11:15:13;;;;;;;11.93;0.75;;;7.00;99.90;;;;;;5015409;28;20435;-83
2021/03/19 11:17:39;;;;;;;0.80;0.63;;;7.00;99.90;;;;;;5003436;28;20070;-87
2021/03/19 11:20:10;;;;;;;10.80;2.73;;;7.10;99.90;;;;;;5017251;28;20358;-80
2021/03/19 11:22:39;;;;;;;1.42;0.75;;;7.20;99.90;;;;;;5032098;28;20033;-77
2021/03/19 11:25:25;;;;;;;1.23;0.70;;;7.10;99.90;;;;;;5032532;28;20082;-77
2021/03/19 11:27:52;;;;;;;0.30;0.30;;;7.10;99.90;;;;;;5013855;28;20034;-88
2021/03/19 11:30:24;;;;;;;0.55;0.43;;;7.00;99.90;;;;;;5012664;28;20129;-84
2021/03/19 11:33:20;;;;;;;0.28;0.28;;;6.80;99.90;;;;;;5015839;28;20428;-79
2021/03/19 11:36:09;;;;;;;0.08;0.08;;;6.80;99.90;;;;;;4995549;28;20060;-82
2021/03/19 11:38:40;;;;;;;0.32;0.30;;;7.00;99.90;;;;;;5029388;28;20026;-80
2021/03/19 11:41:34;;;;;;;0.38;0.38;;;6.90;99.90;;;;;;5032054;28;20030;-81
2021/03/19 11:44:00;;;;;;;0.85;0.85;;;7.10;99.90;;;;;;5031971;28;20443;-80
2021/03/19 11:46:28;;;;;;;0.95;0.95;;;7.10;99.90;;;;;;5027843;28;20021;-80
2021/03/19 11:48:54;;;;;;;0.50;0.50;;;7.20;99.90;;;;;;5013900;28;20059;-87
2021/03/19 11:51:31;;;;;;;0.33;0.33;;;7.20;99.90;;;;;;5031703;28;20412;-85
2021/03/19 11:54:09;;;;;;;0.10;0.10;;;7.40;99.90;;;;;;4998601;28;20144;-86
2021/03/19 11:56:36;;;;;;;0.30;0.30;;;7.40;99.90;;;;;;5012193;28;20029;-81
2021/03/19 11:59:03;;;;;;;1.50;1.40;;;7.20;99.90;;;;;;5009387;28;20043;-81
2021/03/19 12:01:31;;;;;;;0.57;0.45;;;7.30;99.90;;;;;;5015437;28;20316;-82
2021/03/19 12:03:58;;;;;;;0.30;0.30;;;7.60;99.90;;;;;;5032343;28;20040;-83
2021/03/19 12:06:28;;;;;;;0.13;0.13;;;7.70;99.90;;;;;;5017333;28;20025;-81
2021/03/19 12:08:54;;;;;;;0.55;0.55;;;7.60;99.90;;;;;;5004681;28;20084;-80
2021/03/19 12:11:22;;;;;;;0.70;0.45;;;7.60;99.90;;;;;;5034730;28;20079;-83
2021/03/19 12:13:48;;;;;;;0.60;0.60;;;7.50;99.90;;;;;;5016259;28;20033;-81
2021/03/19 12:16:14;;;;;;;0.30;0.30;;;7.50;99.90;;;;;;5017221;28;20316;-84
2021/03/19 12:18:39;;;;;;;0.50;0.50;;;7.80;99.90;;;;;;5016362;28;20036;-80
2021/03/19 12:21:06;;;;;;;0.10;0.10;;;7.70;99.90;;;;;;5017058;28;20435;-83
2021/03/19 12:23:31;;;;;;;0.90;0.90;;;7.70;99.90;;;;;;5017192;28;20341;-83
2021/03/19 12:25:57;;;;;;;0.20;0.20;;;7.60;99.90;;;;;;5030882;28;20033;-80
2021/03/19 12:28:24;;;;;;;6.57;1.43;;;7.60;99.90;;;;;;5034114;28;20408;-86
2021/03/19 12:30:51;;;;;;;;;;;7.60;99.90;;;;;;5016521;28;20037;-79
2021/03/19 12:33:19;;;;;;;0.10;0.10;;;7.50;99.90;;;;;;5030146;28;19909;-79
2021/03/19 12:35:44;;;;;;;0.17;0.17;;;7.50;99.90;;;;;;5034209;28;20026;-84
2021/03/19 12:38:12;;;;;;;0.10;0.10;;;7.60;99.90;;;;;;5030139;28;20026;-80
2021/03/19 12:40:38;;;;;;;0.10;0.10;;;7.60;99.90;;;;;;5016063;28;20021;-81
2021/03/19 12:43:05;;;;;;;0.10;0.10;;;7.50;99.90;;;;;;5015957;28;20020;-83
2021/03/19 12:45:33;;;;;;;0.47;0.47;;;7.50;99.90;;;;;;5012212;28;20385;-79
2021/03/19 12:47:59;;;;;;;0.28;0.28;;;7.70;99.90;;;;;;5032560;28;20076;-81
2021/03/19 12:50:27;;;;;;;0.30;0.30;;;7.90;99.90;;;;;;5028227;28;20021;-83
2021/03/19 12:52:53;;;;;;;0.65;0.65;;;7.70;99.90;;;;;;5014878;28;20083;-84
2021/03/19 12:55:20;;;;;;;0.57;0.57;;;7.70;99.90;;;;;;5030092;28;20076;-78
2021/03/19 12:57:45;;;;;;;0.38;0.38;;;7.60;99.90;;;;;;5013918;28;20117;-83
2021/03/19 13:00:24;;;;;;;0.40;0.40;;;7.70;99.90;;;;;;5031689;28;20112;-79
2021/03/19 13:02:50;;;;;;;0.43;0.43;;;7.70;99.90;;;;;;5012783;28;20440;-82
2021/03/19 13:05:18;;;;;;;0.20;0.20;;;7.60;99.90;;;;;;5016182;28;20026;-86
2021/03/19 13:07:44;;;;;;;0.38;0.20;;;7.60;99.90;;;;;;5016442;28;20416;-78
2021/03/19 13:10:11;;;;;;;1.03;0.83;;;7.60;99.90;;;;;;5034802;28;20032;-89
2021/03/19 13:12:37;;;;;;;2.70;0.90;;;7.80;99.90;;;;;;5016360;28;20420;-81
2021/03/19 13:15:05;;;;;;;3.42;0.35;;;7.80;99.90;;;;;;5014605;28;20033;-80
2021/03/19 13:17:31;;;;;;;0.17;0.17;;;7.80;99.90;;;;;;5030000;28;20029;-85
2021/03/19 13:19:57;;;;;;;0.37;0.37;;;7.90;99.90;;;;;;5019281;28;20037;-81
2021/03/19 13:22:23;;;;;;;0.10;0.10;;;7.80;99.90;;;;;;5034380;28;20022;-87
2021/03/19 13:24:49;;;;;;;0.00;0.00;;;7.80;99.90;;;;;;5012106;28;20105;-88
2021/03/19 13:27:14;;;;;;;0.20;0.20;;;7.80;99.90;;;;;;5006857;28;20430;-80
2021/03/19 13:29:40;;;;;;;0.00;0.00;;;7.90;99.90;;;;;;5013534;28;20191;-83
2021/03/19 13:32:06;;;;;;;0.37;0.37;;;7.90;99.90;;;;;;5032349;28;20378;-81
2021/03/19 13:34:32;;;;;;;0.63;0.63;;;7.90;99.90;;;;;;5028858;28;20097;-83
2021/03/19 13:36:58;;;;;;;3.35;0.63;;;7.90;99.90;;;;;;5037346;28;20053;-84